Time;durP1;ratioP1;P1;durP2;ratioP2;P2;SDS_P1;SDS_P2;PMS_P1;PMS_P2;Temp;Humidity;BMP_temperature;BMP_pressure;BME280_temperature;BME280_humidity;BME280_pressure;Samples;Min_cycle;Max_cycle;Signal;HPM_P1;HPM_P2
2020/12/18 00:01:18;;;;;;;3.20;1.63;;;;;;;3.21;65.91;100436.56;5028070;28;20393;-61
2020/12/18 00:03:43;;;;;;;2.25;1.50;;;;;;;3.25;65.97;100440.78;5029698;28;20140;-61
2020/12/18 00:06:09;;;;;;;2.65;1.35;;;;;;;3.25;65.53;100443.44;5030009;28;20040;-60
2020/12/18 00:08:34;;;;;;;3.15;1.58;;;;;;;3.19;65.02;100443.69;5028698;28;20049;-58
2020/12/18 00:11:00;;;;;;;4.80;1.58;;;;;;;3.18;65.12;100439.31;5029397;28;20037;-59
2020/12/18 00:13:25;;;;;;;2.30;1.33;;;;;;;3.18;65.30;100455.19;5029721;28;20132;-60
2020/12/18 00:15:52;;;;;;;1.92;1.45;;;;;;;3.21;64.90;100446.25;5029452;28;20033;-59
2020/12/18 00:18:18;;;;;;;1.83;1.45;;;;;;;3.22;64.63;100425.03;5025602;28;20025;-61
2020/12/18 00:20:43;;;;;;;1.95;1.75;;;;;;;3.16;64.63;100422.66;5027230;28;20099;-57
2020/12/18 00:23:09;;;;;;;1.42;1.33;;;;;;;3.25;64.91;100440.78;5027130;28;20181;-59
2020/12/18 00:25:34;;;;;;;2.13;1.45;;;;;;;3.16;64.64;100412.06;5027047;28;20045;-61
2020/12/18 00:27:59;;;;;;;1.60;1.40;;;;;;;3.28;65.38;100422.13;5027241;28;20072;-53
2020/12/18 00:30:25;;;;;;;3.17;1.33;;;;;;;3.24;64.34;100419.66;5026571;28;20038;-60
2020/12/18 00:32:50;;;;;;;1.90;1.27;;;;;;;3.30;64.36;100424.72;5028005;28;20095;-58
2020/12/18 00:35:16;;;;;;;2.70;1.10;;;;;;;3.26;64.60;100425.78;5030799;28;20029;-57
2020/12/18 00:37:41;;;;;;;2.65;1.42;;;;;;;3.26;64.26;100433.72;5032344;28;20041;-56
2020/12/18 00:40:07;;;;;;;1.52;1.13;;;;;;;3.32;64.32;100443.19;5032618;28;20512;-55
2020/12/18 00:42:33;;;;;;;1.55;1.20;;;;;;;3.28;64.03;100438.00;5049612;28;20041;-59
2020/12/18 00:44:59;;;;;;;1.13;1.02;;;;;;;3.20;64.29;100423.38;5053100;28;20087;-56
2020/12/18 00:47:25;;;;;;;1.33;1.23;;;;;;;3.30;63.91;100441.47;5053508;28;20047;-60
2020/12/18 00:49:50;;;;;;;1.35;1.15;;;;;;;3.27;63.80;100441.59;5048436;28;20040;-55
2020/12/18 00:52:16;;;;;;;2.88;1.30;;;;;;;3.26;63.71;100447.81;5032784;28;20045;-53
2020/12/18 00:54:41;;;;;;;1.77;1.50;;;;;;;3.23;63.76;100458.53;5033397;28;20033;-59
2020/12/18 00:57:07;;;;;;;2.25;1.50;;;;;;;3.04;64.05;100428.41;5031148;28;20033;-59
2020/12/18 00:59:32;;;;;;;1.95;1.30;;;;;;;3.18;64.14;100449.91;5032124;28;20049;-57
2020/12/18 01:02:00;;;;;;;1.55;1.30;;;;;;;3.14;64.61;100445.66;5032798;28;20065;-59
2020/12/18 01:04:26;;;;;;;1.80;1.50;;;;;;;3.13;64.87;100444.78;5032919;28;20040;-58
2020/12/18 01:06:55;;;;;;;2.05;1.83;;;;;;;2.76;64.49;100390.69;5032198;28;20034;-60
2020/12/18 01:09:22;;;;;;;1.75;1.60;;;;;;;3.00;64.80;100447.06;5032522;28;20083;-59
2020/12/18 01:11:48;;;;;;;1.88;1.65;;;;;;;3.04;65.07;100450.47;5032210;28;20082;-58
2020/12/18 01:14:14;;;;;;;2.92;1.63;;;;;;;3.07;64.94;100457.38;5032206;28;20038;-56
2020/12/18 01:16:40;;;;;;;2.13;1.55;;;;;;;3.03;64.95;100475.19;5032299;28;20037;-58
2020/12/18 01:19:05;;;;;;;2.95;1.90;;;;;;;3.06;64.95;100463.59;5032340;28;20075;-56
2020/12/18 01:21:31;;;;;;;1.88;1.73;;;;;;;3.05;64.58;100468.06;5032468;28;20038;-57
2020/12/18 01:23:56;;;;;;;1.88;1.52;;;;;;;2.94;64.55;100451.72;5032475;28;20400;-56
2020/12/18 01:26:22;;;;;;;3.08;1.98;;;;;;;2.97;64.29;100456.88;5031916;28;20037;-59
2020/12/18 01:28:47;;;;;;;2.03;1.70;;;;;;;3.05;64.01;100469.81;5032178;28;20033;-53
2020/12/18 01:31:13;;;;;;;1.90;1.80;;;;;;;3.07;64.05;100458.28;5032514;28;20033;-54
2020/12/18 01:33:38;;;;;;;3.42;1.80;;;;;;;2.68;63.19;100391.00;5031086;28;20041;-57
2020/12/18 01:36:05;;;;;;;1.73;1.63;;;;;;;3.04;62.96;100461.03;5031401;28;20045;-59
2020/12/18 01:38:31;;;;;;;2.90;1.80;;;;;;;2.91;63.02;100443.91;5032213;28;20038;-54
2020/12/18 01:40:56;;;;;;;3.65;1.90;;;;;;;3.08;63.28;100464.41;5032236;28;20495;-57
2020/12/18 01:43:22;;;;;;;1.92;1.75;;;;;;;3.02;62.90;100447.00;5031254;28;20033;-56
2020/12/18 01:45:47;;;;;;;2.17;1.63;;;;;;;3.11;62.82;100461.63;5030936;28;20045;-54
2020/12/18 01:48:13;;;;;;;3.75;2.00;;;;;;;3.03;62.96;100453.16;5013414;28;20504;-52
2020/12/18 01:50:39;;;;;;;2.13;1.80;;;;;;;3.13;62.80;100454.50;5032388;28;20120;-58
2020/12/18 01:53:05;;;;;;;2.20;2.00;;;;;;;3.26;62.57;100468.97;5031439;28;20063;-57
2020/12/18 01:55:30;;;;;;;2.53;1.90;;;;;;;2.97;62.75;100443.66;5031626;28;20574;-55
2020/12/18 01:57:56;;;;;;;2.13;1.92;;;;;;;2.82;63.15;100421.31;5031512;28;20097;-62
2020/12/18 02:00:23;;;;;;;2.53;2.10;;;;;;;2.81;63.53;100443.41;5031819;28;20041;-62
2020/12/18 02:02:49;;;;;;;1.98;1.77;;;;;;;2.97;64.01;100473.63;5031679;28;20042;-58
2020/12/18 02:05:15;;;;;;;2.28;2.08;;;;;;;2.90;63.64;100455.41;5030839;28;20040;-60
2020/12/18 02:07:53;;;;;;;2.40;2.10;;;;;;;3.00;63.49;100470.88;5031344;28;20045;-61
2020/12/18 02:10:19;;;;;;;3.35;2.20;;;;;;;3.05;63.63;100477.75;5031627;28;20033;-60
2020/12/18 02:12:44;;;;;;;5.03;2.03;;;;;;;3.05;63.62;100483.94;5031368;28;20369;-59
2020/12/18 02:15:12;;;;;;;2.60;2.40;;;;;;;3.00;64.06;100476.16;5030527;28;20422;-61
2020/12/18 02:17:37;;;;;;;2.03;1.83;;;;;;;2.93;63.44;100469.38;5030899;28;20090;-58
2020/12/18 02:20:04;;;;;;;2.60;2.30;;;;;;;2.87;63.87;100453.72;5031479;28;20046;-58
2020/12/18 02:22:29;;;;;;;2.78;2.05;;;;;;;3.09;63.15;100497.88;5031254;28;20061;-57
2020/12/18 02:25:08;;;;;;;3.72;2.28;;;;;;;3.04;63.05;100487.50;5030201;28;20071;-57
2020/12/18 02:27:34;;;;;;;2.55;2.35;;;;;;;2.95;63.42;100488.72;5034280;28;20091;-60
2020/12/18 02:30:01;;;;;;;4.10;2.35;;;;;;;2.93;63.43;100485.25;5051472;28;20032;-59
2020/12/18 02:32:27;;;;;;;2.67;2.25;;;;;;;2.94;63.20;100499.34;5050289;28;20126;-59
2020/12/18 02:34:52;;;;;;;2.72;2.05;;;;;;;2.93;63.14;100495.84;5048797;28;20067;-63
2020/12/18 02:37:18;;;;;;;4.07;2.30;;;;;;;2.94;63.08;100496.69;5030280;28;20110;-59
2020/12/18 02:39:43;;;;;;;2.50;2.30;;;;;;;2.80;62.29;100481.34;5030612;28;20033;-59
2020/12/18 02:42:09;;;;;;;2.33;2.13;;;;;;;2.83;62.15;100471.53;5031309;28;20116;-60
2020/12/18 02:44:34;;;;;;;4.65;2.17;;;;;;;2.96;62.20;100501.00;5031151;28;20108;-60
2020/12/18 02:47:00;;;;;;;3.10;2.10;;;;;;;2.50;61.70;100413.69;5030220;28;20485;-59
2020/12/18 02:49:25;;;;;;;2.10;1.90;;;;;;;2.93;61.81;100505.53;5031036;28;20144;-61
2020/12/18 02:51:51;;;;;;;1.95;1.85;;;;;;;2.65;61.11;100449.28;5030850;28;20033;-59
2020/12/18 02:54:16;;;;;;;2.67;2.25;;;;;;;2.80;61.12;100484.88;5029959;28;20034;-59
2020/12/18 02:56:42;;;;;;;2.50;1.90;;;;;;;2.93;61.11;100514.34;5029311;28;20045;-60
2020/12/18 02:59:08;;;;;;;3.45;2.17;;;;;;;2.98;60.70;100517.69;5030630;28;20215;-63
2020/12/18 03:01:33;;;;;;;2.13;1.85;;;;;;;2.88;59.72;100503.06;5030462;28;20041;-57
2020/12/18 03:03:59;;;;;;;2.15;1.70;;;;;;;2.98;59.92;100515.03;5030213;28;20488;-60
2020/12/18 03:06:24;;;;;;;2.50;2.10;;;;;;;2.89;59.68;100501.28;5030181;28;20484;-60
2020/12/18 03:08:50;;;;;;;1.80;1.70;;;;;;;2.77;59.49;100489.41;5030487;28;20095;-57
2020/12/18 03:11:16;;;;;;;3.65;1.80;;;;;;;3.00;60.18;100522.91;5030259;28;20030;-57
2020/12/18 03:13:44;;;;;;;2.13;1.92;;;;;;;2.97;59.15;100515.09;5030177;28;20497;-55
2020/12/18 03:16:12;;;;;;;2.05;1.83;;;;;;;3.03;59.61;100528.09;5030034;28;20508;-61
2020/12/18 03:18:39;;;;;;;1.77;1.67;;;;;;;3.05;59.33;100520.97;5030596;28;20044;-58
2020/12/18 03:21:04;;;;;;;2.15;1.95;;;;;;;3.04;58.83;100534.25;5030499;28;20041;-59
2020/12/18 03:23:30;;;;;;;4.05;2.15;;;;;;;3.09;59.03;100537.56;5029792;28;20123;-61
2020/12/18 03:25:55;;;;;;;2.15;1.95;;;;;;;3.09;58.84;100538.44;5040417;28;20091;-59
2020/12/18 03:28:21;;;;;;;2.65;2.20;;;;;;;3.06;58.94;100540.34;5030328;28;20055;-61
2020/12/18 03:30:46;;;;;;;2.85;1.70;;;;;;;3.06;58.43;100550.91;5030069;28;20041;-60
2020/12/18 03:33:12;;;;;;;3.35;2.05;;;;;;;2.98;58.54;100535.31;5030178;28;20429;-60
2020/12/18 03:35:38;;;;;;;1.98;1.50;;;;;;;2.72;58.14;100500.13;5030226;28;20048;-61
2020/12/18 03:38:03;;;;;;;2.45;1.73;;;;;;;2.92;58.48;100554.97;5029971;28;20037;-58
2020/12/18 03:40:29;;;;;;;2.22;1.88;;;;;;;2.94;58.13;100566.34;5029627;28;20041;-58
2020/12/18 03:42:54;;;;;;;2.35;1.98;;;;;;;2.84;58.56;100543.78;5029624;28;20473;-59
2020/12/18 03:45:20;;;;;;;1.92;1.50;;;;;;;2.93;58.21;100555.81;5030515;28;20037;-61
2020/12/18 03:47:45;;;;;;;2.30;2.10;;;;;;;2.97;58.52;100566.22;5029955;28;20080;-59
2020/12/18 03:50:11;;;;;;;2.40;1.95;;;;;;;2.98;57.86;100554.72;5029642;28;20033;-57
2020/12/18 03:52:36;;;;;;;2.20;2.00;;;;;;;2.99;58.09;100561.72;5029368;28;20044;-59
2020/12/18 03:55:02;;;;;;;2.10;1.90;;;;;;;2.98;58.21;100565.31;5030161;28;20045;-60
2020/12/18 03:57:28;;;;;;;2.35;1.90;;;;;;;2.84;58.06;100534.06;5029809;28;20441;-58
2020/12/18 03:59:54;;;;;;;2.17;1.98;;;;;;;3.09;57.39;100566.66;5029345;28;20104;-58
2020/12/18 04:02:19;;;;;;;2.15;1.95;;;;;;;2.96;58.10;100559.22;5029901;28;20042;-60
2020/12/18 04:04:46;;;;;;;1.90;1.80;;;;;;;2.98;58.18;100567.94;5029828;28;20500;-57
2020/12/18 04:07:13;;;;;;;2.28;1.92;;;;;;;3.04;58.33;100581.84;5029356;28;20042;-55
2020/12/18 04:09:40;;;;;;;2.08;1.80;;;;;;;2.96;57.85;100563.63;5033738;28;20029;-61
2020/12/18 04:12:06;;;;;;;1.88;1.70;;;;;;;3.04;57.76;100572.16;5034020;28;20175;-55
2020/12/18 04:14:32;;;;;;;2.00;1.65;;;;;;;2.72;57.90;100524.81;5033647;28;20120;-59
2020/12/18 04:16:58;;;;;;;1.75;1.63;;;;;;;3.11;57.47;100572.75;5033650;28;20195;-59
2020/12/18 04:19:23;;;;;;;2.05;1.73;;;;;;;3.03;57.29;100564.25;5033790;28;20469;-61
2020/12/18 04:21:49;;;;;;;2.15;1.95;;;;;;;3.08;56.93;100567.59;5031658;28;20045;-62
2020/12/18 04:24:14;;;;;;;4.35;1.60;;;;;;;3.06;57.24;100572.06;5032949;28;20555;-63
2020/12/18 04:26:40;;;;;;;2.95;1.63;;;;;;;2.89;57.09;100536.53;5033122;28;20049;-60
2020/12/18 04:29:05;;;;;;;1.80;1.70;;;;;;;3.11;57.20;100578.06;5032725;28;20030;-67
2020/12/18 04:31:31;;;;;;;2.58;2.38;;;;;;;3.09;57.10;100580.78;5033236;28;20071;-66
2020/12/18 04:33:56;;;;;;;1.85;1.65;;;;;;;2.53;57.65;100481.44;5032658;28;20435;-58
2020/12/18 04:36:22;;;;;;;3.00;1.88;;;;;;;3.12;57.24;100585.06;5032614;28;20034;-64
2020/12/18 04:38:47;;;;;;;2.00;1.80;;;;;;;3.05;57.43;100567.72;5033299;28;20503;-63
2020/12/18 04:41:13;;;;;;;1.92;1.75;;;;;;;3.13;57.46;100589.44;5032905;28;20038;-58
2020/12/18 04:43:39;;;;;;;3.75;2.35;;;;;;;3.10;57.44;100574.56;5033467;28;20033;-63
2020/12/18 04:46:09;;;;;;;2.10;1.90;;;;;;;3.21;57.00;100589.16;5032810;28;20091;-63
2020/12/18 04:48:35;;;;;;;2.50;2.20;;;;;;;3.16;57.40;100578.78;5032350;28;20088;-63
2020/12/18 04:51:02;;;;;;;2.30;2.08;;;;;;;3.26;57.02;100596.00;5032554;28;20041;-61
2020/12/18 04:53:32;;;;;;;2.47;2.03;;;;;;;3.23;57.09;100593.50;5032639;28;20485;-63
2020/12/18 04:56:08;;;;;;;2.30;2.10;;;;;;;3.26;57.33;100601.31;5032172;28;20057;-62
2020/12/18 04:58:34;;;;;;;3.33;2.22;;;;;;;3.26;57.26;100590.72;5032353;28;20108;-62
2020/12/18 05:01:02;;;;;;;3.00;1.92;;;;;;;3.25;57.68;100598.69;5032753;28;20132;-63
2020/12/18 05:03:32;;;;;;;2.17;1.98;;;;;;;3.23;57.51;100601.44;5033149;28;20041;-61
2020/12/18 05:05:59;;;;;;;4.60;2.47;;;;;;;3.28;57.36;100603.91;5032412;28;20033;-63
2020/12/18 05:08:26;;;;;;;2.58;2.10;;;;;;;3.26;58.00;100596.00;5031878;28;20116;-61
2020/12/18 05:10:51;;;;;;;2.15;1.95;;;;;;;3.27;57.56;100610.97;5032852;28;20065;-63
2020/12/18 05:13:19;;;;;;;2.35;2.15;;;;;;;3.25;57.41;100607.53;5032566;28;20508;-60
2020/12/18 05:15:45;;;;;;;2.70;1.90;;;;;;;3.19;56.93;100613.06;5032256;28;20509;-53
2020/12/18 05:18:11;;;;;;;2.33;2.13;;;;;;;1.77;57.44;100368.78;5031525;28;20057;-62
2020/12/18 05:20:37;;;;;;;3.28;2.00;;;;;;;3.19;56.92;100621.00;5031370;28;20044;-61
2020/12/18 05:23:09;;;;;;;3.47;2.20;;;;;;;3.22;57.06;100612.06;5031282;28;20038;-56
2020/12/18 05:25:37;;;;;;;3.15;2.22;;;;;;;3.20;57.01;100620.06;5031862;28;20033;-62
2020/12/18 05:28:03;;;;;;;2.92;2.47;;;;;;;3.20;57.57;100617.41;5031378;28;20144;-63
2020/12/18 05:30:29;;;;;;;3.20;2.58;;;;;;;3.23;57.30;100624.38;5032373;28;20029;-62
2020/12/18 05:32:56;;;;;;;3.42;2.70;;;;;;;3.22;57.23;100618.22;5032587;28;20043;-62
2020/12/18 05:35:22;;;;;;;8.05;2.67;;;;;;;3.23;57.50;100627.00;5031901;28;20033;-63
2020/12/18 05:37:50;;;;;;;3.33;2.35;;;;;;;3.19;57.47;100613.06;5031160;28;20487;-61
2020/12/18 05:40:17;;;;;;;6.05;2.70;;;;;;;3.23;57.39;100624.38;5032064;28;20505;-52
2020/12/18 05:42:47;;;;;;;3.10;2.47;;;;;;;3.25;57.60;100618.09;5032812;28;20045;-63
2020/12/18 05:45:17;;;;;;;3.60;2.63;;;;;;;3.29;57.35;100618.88;5031746;28;20037;-63
2020/12/18 05:48:00;;;;;;;4.35;2.47;;;;;;;3.32;56.92;100631.09;5031752;28;20029;-62
2020/12/18 05:50:30;;;;;;;4.00;2.65;;;;;;;3.34;57.27;100624.84;5031552;28;20515;-63
2020/12/18 05:53:06;;;;;;;4.60;2.58;;;;;;;3.39;57.73;100632.63;5031817;28;20033;-61
2020/12/18 05:55:39;;;;;;;4.32;2.92;;;;;;;3.33;57.16;100620.47;5031453;28;20132;-56
2020/12/18 05:58:05;;;;;;;4.63;2.83;;;;;;;2.91;57.30;100542.66;5031294;28;20061;-64
2020/12/18 06:00:36;;;;;;;3.97;3.10;;;;;;;3.40;57.49;100621.09;5031463;28;20072;-63
2020/12/18 06:03:08;;;;;;;4.05;2.80;;;;;;;3.41;57.61;100623.69;5031379;28;20037;-66
2020/12/18 06:05:36;;;;;;;6.38;3.05;;;;;;;3.38;57.43;100613.22;5029501;28;20029;-65
2020/12/18 06:08:06;;;;;;;6.63;2.85;;;;;;;3.40;57.11;100619.31;5028000;28;20669;-66
2020/12/18 06:10:33;;;;;;;5.60;3.03;;;;;;;3.43;57.66;100621.84;5030559;28;20196;-65
2020/12/18 06:13:03;;;;;;;3.65;3.10;;;;;;;3.47;57.35;100625.25;5031429;28;20037;-64
2020/12/18 06:15:28;;;;;;;5.65;2.65;;;;;;;3.47;57.72;100619.06;5012834;28;20095;-64
2020/12/18 06:17:55;;;;;;;6.50;2.78;;;;;;;3.47;57.90;100633.19;5031006;28;20492;-64
2020/12/18 06:20:20;;;;;;;4.30;3.03;;;;;;;3.42;57.57;100620.09;5030737;28;20512;-62
2020/12/18 06:23:03;;;;;;;4.00;2.97;;;;;;;3.53;57.40;100626.81;5030860;28;20076;-64
2020/12/18 06:25:29;;;;;;;4.70;2.80;;;;;;;3.51;57.76;100647.19;5030841;28;20037;-61
2020/12/18 06:28:02;;;;;;;3.30;2.40;;;;;;;3.51;57.75;100633.94;5031045;28;20037;-65
2020/12/18 06:30:29;;;;;;;4.32;2.92;;;;;;;3.41;57.50;100636.91;5030480;28;20421;-64
2020/12/18 06:32:55;;;;;;;5.18;2.65;;;;;;;3.31;57.94;100627.59;5030356;28;20029;-65
2020/12/18 06:35:29;;;;;;;5.10;3.13;;;;;;;2.99;57.98;100571.44;5029173;28;20041;-63
2020/12/18 06:37:56;;;;;;;5.13;2.67;;;;;;;3.22;57.95;100612.06;5030355;28;20033;-66
2020/12/18 06:40:32;;;;;;;3.78;2.65;;;;;;;3.35;57.86;100642.44;5030935;28;20041;-63
2020/12/18 06:42:58;;;;;;;2.50;2.30;;;;;;;3.26;57.99;100638.34;5030189;28;20056;-64
2020/12/18 06:45:25;;;;;;;2.92;2.53;;;;;;;3.23;58.05;100648.19;5029929;28;20048;-62
2020/12/18 06:47:51;;;;;;;3.67;2.53;;;;;;;3.18;57.72;100637.78;5030877;28;20029;-65
2020/12/18 06:50:18;;;;;;;4.75;2.47;;;;;;;3.14;57.97;100647.63;5030724;28;20404;-65
2020/12/18 06:52:47;;;;;;;3.65;2.45;;;;;;;3.14;57.80;100646.78;5030231;28;20029;-64
2020/12/18 06:55:15;;;;;;;3.00;2.20;;;;;;;3.10;57.96;100653.06;5029751;28;20408;-64
2020/12/18 06:57:42;;;;;;;2.80;1.88;;;;;;;3.06;57.90;100652.34;5012842;28;20042;-64
2020/12/18 07:00:26;;;;;;;2.78;1.98;;;;;;;3.12;57.33;100652.09;5030436;28;20033;-63
2020/12/18 07:02:52;;;;;;;2.70;2.00;;;;;;;3.06;57.84;100659.38;5029522;28;20077;-62
2020/12/18 07:05:46;;;;;;;4.95;2.30;;;;;;;3.13;57.87;100660.88;5030820;28;20068;-61
2020/12/18 07:08:15;;;;;;;2.35;2.00;;;;;;;2.80;57.78;100624.16;5024363;28;20045;-63
2020/12/18 07:10:45;;;;;;;3.60;2.33;;;;;;;3.06;57.85;100664.69;5029594;28;20853;-59
2020/12/18 07:13:16;;;;;;;4.05;2.20;;;;;;;3.09;57.54;100681.31;5029508;28;20136;-64
2020/12/18 07:15:48;;;;;;;3.13;2.67;;;;;;;3.06;57.28;100680.56;5030249;28;20029;-65
2020/12/18 07:18:23;;;;;;;2.90;2.40;;;;;;;3.10;57.40;100687.47;5030342;28;20593;-66
2020/12/18 07:20:52;;;;;;;3.17;2.10;;;;;;;3.06;56.91;100692.03;5011991;28;20393;-64
2020/12/18 07:23:19;;;;;;;2.70;2.17;;;;;;;2.83;57.00;100642.56;5030303;28;20119;-64
2020/12/18 07:25:45;;;;;;;3.05;2.10;;;;;;;3.08;56.89;100684.00;5030045;28;20044;-63
2020/12/18 07:28:11;;;;;;;2.28;1.73;;;;;;;2.94;56.45;100671.28;5030160;28;20124;-64
2020/12/18 07:30:44;;;;;;;3.30;1.75;;;;;;;3.03;56.36;100681.53;5029552;28;20176;-63
2020/12/18 07:33:12;;;;;;;1.70;1.60;;;;;;;3.08;56.09;100706.06;5011815;28;20578;-63
2020/12/18 07:35:43;;;;;;;4.60;1.80;;;;;;;3.01;55.57;100689.53;5026497;28;20037;-62
2020/12/18 07:38:20;;;;;;;2.08;1.83;;;;;;;3.06;55.35;100699.06;5028199;28;20087;-63
2020/12/18 07:40:51;;;;;;;3.35;1.60;;;;;;;3.07;56.07;100704.31;5027863;28;20040;-64
2020/12/18 07:43:17;;;;;;;2.42;1.92;;;;;;;3.10;55.66;100708.63;5027059;28;20029;-62
2020/12/18 07:45:48;;;;;;;5.25;1.98;;;;;;;3.14;56.30;100704.97;5027939;28;20029;-67
2020/12/18 07:48:16;;;;;;;2.70;1.80;;;;;;;2.68;55.74;100634.25;5028234;28;20123;-66
2020/12/18 07:50:55;;;;;;;2.25;2.05;;;;;;;3.23;55.67;100714.34;5027540;28;20033;-65
2020/12/18 07:53:21;;;;;;;3.30;2.00;;;;;;;3.16;56.06;100716.38;5027737;28;20030;-66
2020/12/18 07:56:07;;;;;;;5.75;2.30;;;;;;;3.15;55.62;100722.59;5029695;28;20029;-64
2020/12/18 07:58:43;;;;;;;3.80;2.90;;;;;;;3.13;56.11;100719.09;5024542;28;20053;-65
2020/12/18 08:01:11;;;;;;;3.95;2.60;;;;;;;3.11;56.50;100719.16;5011019;28;20045;-65
2020/12/18 08:03:38;;;;;;;3.40;2.60;;;;;;;3.11;56.66;100723.59;5028534;28;20037;-64
2020/12/18 08:06:04;;;;;;;4.40;2.70;;;;;;;3.13;56.46;100729.69;5028044;28;20248;-60
2020/12/18 08:08:31;;;;;;;7.55;3.63;;;;;;;3.15;56.42;100726.06;5019574;28;20091;-66
2020/12/18 08:11:00;;;;;;;7.13;4.28;;;;;;;3.14;56.84;100736.72;5028865;28;20029;-63
2020/12/18 08:13:26;;;;;;;6.20;4.00;;;;;;;3.15;56.30;100738.47;5028162;28;20033;-65
2020/12/18 08:16:08;;;;;;;6.68;4.10;;;;;;;3.11;56.13;100716.53;5029120;28;20095;-64
2020/12/18 08:18:34;;;;;;;5.57;3.40;;;;;;;3.14;56.34;100736.72;5028407;28;20049;-65
2020/12/18 08:21:00;;;;;;;4.80;2.97;;;;;;;3.08;56.48;100740.44;5028887;28;20029;-64
2020/12/18 08:23:27;;;;;;;6.90;3.05;;;;;;;3.12;56.02;100725.31;5028304;28;20448;-65
2020/12/18 08:25:53;;;;;;;8.52;4.47;;;;;;;3.16;56.64;100734.91;5028832;28;20050;-64
2020/12/18 08:28:20;;;;;;;8.90;4.28;;;;;;;3.15;57.00;100734.03;5020610;28;20040;-63
2020/12/18 08:30:49;;;;;;;5.90;4.20;;;;;;;2.82;56.51;100668.16;5028300;28;20048;-63
2020/12/18 08:33:19;;;;;;;12.27;4.95;;;;;;;3.24;56.19;100730.19;5028267;28;20034;-66
2020/12/18 08:35:53;;;;;;;7.18;3.88;;;;;;;3.35;56.07;100726.28;5028427;28;20136;-62
2020/12/18 08:38:18;;;;;;;7.03;3.58;;;;;;;3.43;55.98;100732.19;5027509;28;20037;-70
2020/12/18 08:40:44;;;;;;;4.13;3.30;;;;;;;3.39;55.69;100727.91;5028174;28;20970;-69
2020/12/18 08:43:13;;;;;;;4.38;2.92;;;;;;;2.93;55.20;100654.56;5041388;28;20036;-72
2020/12/18 08:45:43;;;;;;;5.97;2.72;;;;;;;3.35;55.83;100736.88;5028484;28;20088;-64
2020/12/18 08:48:09;;;;;;;5.43;3.00;;;;;;;3.41;55.33;100728.72;5027812;28;20045;-63
2020/12/18 08:50:35;;;;;;;5.05;2.70;;;;;;;3.43;55.27;100721.59;5028115;28;20037;-62
2020/12/18 08:53:14;;;;;;;3.92;2.72;;;;;;;3.43;54.62;100734.81;5028940;28;20152;-67
2020/12/18 08:55:42;;;;;;;3.75;2.65;;;;;;;3.39;55.08;100736.72;5030665;28;20033;-67
2020/12/18 08:58:09;;;;;;;5.10;2.80;;;;;;;3.41;54.71;100747.25;5019227;28;20093;-67
2020/12/18 09:00:36;;;;;;;5.45;2.60;;;;;;;3.47;54.30;100733.78;5030626;28;20049;-64
2020/12/18 09:03:02;;;;;;;3.97;2.20;;;;;;;3.47;54.04;100738.22;5028985;28;20037;-66
2020/12/18 09:05:34;;;;;;;5.00;2.38;;;;;;;3.46;53.58;100745.31;5031437;28;20041;-62
2020/12/18 09:08:07;;;;;;;3.83;2.85;;;;;;;3.09;53.31;100677.78;5031305;28;20033;-72
2020/12/18 09:10:43;;;;;;;2.55;2.33;;;;;;;3.50;53.59;100746.91;5031802;28;20040;-63
2020/12/18 09:13:20;;;;;;;3.63;2.70;;;;;;;3.47;53.51;100743.50;5027900;28;20029;-67
2020/12/18 09:16:02;;;;;;;4.60;2.47;;;;;;;3.42;53.17;100748.97;5031577;28;20034;-63
2020/12/18 09:18:30;;;;;;;3.28;2.72;;;;;;;3.06;53.69;100688.50;5022581;28;20469;-57
2020/12/18 09:21:12;;;;;;;2.90;2.53;;;;;;;3.45;53.03;100762.97;5031912;28;20400;-57
2020/12/18 09:23:38;;;;;;;4.10;2.72;;;;;;;3.48;53.02;100762.00;5031826;28;20497;-60
2020/12/18 09:26:04;;;;;;;4.43;3.28;;;;;;;3.54;53.37;100761.75;5031386;28;20056;-62
2020/12/18 09:28:43;;;;;;;4.10;3.00;;;;;;;3.59;52.67;100765.09;5031182;28;20087;-61
2020/12/18 09:31:09;;;;;;;4.45;3.13;;;;;;;3.61;52.91;100756.22;5031198;28;20120;-62
2020/12/18 09:33:37;;;;;;;5.03;2.85;;;;;;;3.65;52.77;100769.31;5031764;28;20132;-63
2020/12/18 09:36:14;;;;;;;4.38;2.65;;;;;;;3.67;53.10;100782.50;5022391;28;20071;-65
2020/12/18 09:38:45;;;;;;;4.38;2.85;;;;;;;3.69;52.91;100772.72;5013349;28;20405;-61
2020/12/18 09:41:16;;;;;;;3.33;2.80;;;;;;;3.68;52.98;100773.66;5030904;28;20382;-59
2020/12/18 09:43:42;;;;;;;5.80;2.53;;;;;;;3.58;53.05;100771.31;5031031;28;20473;-60
2020/12/18 09:46:11;;;;;;;5.70;2.42;;;;;;;3.58;53.01;100779.25;5030241;28;20043;-67
2020/12/18 09:48:45;;;;;;;4.75;2.63;;;;;;;3.57;53.01;100771.41;5030515;28;20068;-62
2020/12/18 09:51:11;;;;;;;3.58;2.67;;;;;;;3.61;52.91;100783.59;5031112;28;20041;-67
2020/12/18 09:53:36;;;;;;;3.50;2.63;;;;;;;3.56;53.29;100785.56;5030934;28;20047;-65
2020/12/18 09:56:06;;;;;;;5.57;3.17;;;;;;;3.46;52.78;100779.72;5030279;28;20049;-62
2020/12/18 09:58:32;;;;;;;4.65;3.08;;;;;;;3.37;53.10;100775.63;5030074;28;20053;-57
2020/12/18 10:00:57;;;;;;;3.42;2.75;;;;;;;3.25;52.96;100782.19;5031057;28;20049;-59
2020/12/18 10:03:22;;;;;;;4.70;3.40;;;;;;;3.10;53.08;100761.53;5028737;28;20036;-51
2020/12/18 10:05:48;;;;;;;3.63;2.92;;;;;;;3.21;53.42;100785.88;5029141;28;20110;-52
2020/12/18 10:08:14;;;;;;;4.93;3.05;;;;;;;3.14;53.15;100779.06;5029039;28;20120;-58
2020/12/18 10:10:39;;;;;;;4.28;3.15;;;;;;;3.03;53.28;100763.56;5052565;28;20072;-64
2020/12/18 10:13:05;;;;;;;5.43;3.85;;;;;;;3.04;53.84;100767.06;5029859;28;20036;-61
2020/12/18 10:15:31;;;;;;;4.25;3.15;;;;;;;2.99;53.26;100753.97;5030863;28;20033;-55
2020/12/18 10:17:57;;;;;;;4.85;3.50;;;;;;;2.97;53.52;100758.47;5031051;28;20037;-62
2020/12/18 10:20:23;;;;;;;5.78;3.72;;;;;;;3.04;53.53;100775.00;5029926;28;20087;-62
2020/12/18 10:22:49;;;;;;;5.45;3.55;;;;;;;3.05;53.26;100782.00;5030154;28;20226;-54
2020/12/18 10:25:14;;;;;;;4.13;3.08;;;;;;;2.92;53.67;100763.03;5030661;28;20477;-63
2020/12/18 10:27:41;;;;;;;5.13;3.63;;;;;;;3.06;53.35;100781.09;5029911;28;20045;-60
2020/12/18 10:30:07;;;;;;;4.45;3.30;;;;;;;3.03;53.31;100765.34;5030168;28;20175;-61
2020/12/18 10:32:34;;;;;;;5.60;3.72;;;;;;;3.13;53.21;100774.66;5007939;28;20708;-57
2020/12/18 10:34:59;;;;;;;4.72;3.47;;;;;;;2.62;53.67;100692.63;5025736;28;20049;-56
2020/12/18 10:37:26;;;;;;;5.38;3.60;;;;;;;3.16;53.74;100782.53;5047875;28;20029;-59
2020/12/18 10:39:51;;;;;;;3.83;3.10;;;;;;;3.20;53.26;100784.16;5034021;28;20452;-62
2020/12/18 10:42:17;;;;;;;4.07;3.38;;;;;;;3.27;53.60;100779.50;5026292;28;20095;-61
2020/12/18 10:44:43;;;;;;;6.80;3.67;;;;;;;3.06;53.09;100749.34;5024396;28;20441;-60
2020/12/18 10:47:10;;;;;;;4.40;3.13;;;;;;;3.19;53.10;100782.41;5032053;28;20087;-62
2020/12/18 10:49:36;;;;;;;5.18;3.42;;;;;;;3.06;53.27;100771.41;5008724;28;20042;-55
2020/12/18 10:52:01;;;;;;;5.07;3.22;;;;;;;3.20;53.17;100789.44;5019583;28;20046;-57
2020/12/18 10:54:28;;;;;;;3.85;3.20;;;;;;;3.23;52.81;100783.16;5023681;28;20120;-62
2020/12/18 10:56:55;;;;;;;4.25;3.28;;;;;;;2.55;53.22;100680.53;5008609;28;20469;-62
2020/12/18 10:59:23;;;;;;;5.47;3.65;;;;;;;3.19;52.62;100771.84;5026442;28;20345;-57
2020/12/18 11:01:52;;;;;;;4.75;3.47;;;;;;;3.29;53.03;100777.69;5038448;28;20045;-53
2020/12/18 11:04:18;;;;;;;4.40;3.38;;;;;;;3.32;52.66;100781.97;5024675;28;20037;-63
2020/12/18 11:06:44;;;;;;;5.60;3.55;;;;;;;3.36;52.53;100783.59;5025921;28;20042;-63
2020/12/18 11:09:09;;;;;;;5.47;3.63;;;;;;;3.38;52.72;100793.22;5021513;28;20061;-63
2020/12/18 11:11:35;;;;;;;6.00;3.97;;;;;;;3.39;52.66;100792.31;5024938;28;20025;-62
2020/12/18 11:14:01;;;;;;;5.88;4.20;;;;;;;3.39;52.95;100780.88;5027340;28;20030;-64
2020/12/18 11:16:26;;;;;;;6.50;4.00;;;;;;;3.44;52.49;100797.44;5028560;28;20953;-60
2020/12/18 11:18:52;;;;;;;9.65;4.82;;;;;;;3.42;52.72;100786.06;5037737;28;20111;-58
2020/12/18 11:21:18;;;;;;;5.97;4.25;;;;;;;3.33;52.29;100781.06;5025290;28;20025;-64
2020/12/18 11:23:43;;;;;;;5.38;3.45;;;;;;;3.28;52.61;100787.38;5026437;28;20063;-64
2020/12/18 11:26:10;;;;;;;5.35;3.65;;;;;;;3.03;52.88;100778.56;5028454;28;20033;-66
2020/12/18 11:28:36;;;;;;;4.55;3.70;;;;;;;2.69;53.22;100736.47;5024015;28;20620;-61
2020/12/18 11:31:03;;;;;;;4.15;3.60;;;;;;;3.03;53.36;100787.38;5024523;28;20041;-57
2020/12/18 11:33:28;;;;;;;4.53;3.47;;;;;;;3.01;53.34;100784.75;5029954;28;20058;-64
2020/12/18 11:35:54;;;;;;;6.32;3.78;;;;;;;2.99;53.39;100786.59;5029714;28;20032;-64